Umm Slal — V7PW3 — position and weather

sailwx.info

Track history (hours):
 
Tides and Currents Weather Stations Pressure Air Temp Water Temp Dewpoint Dewpoint Depression Visibility Wind Speed Wind Dir Waves Ship Positions

Umm Slal

Last reported at 2015-Aug-30 15:16 UTC. Time now 2015-Aug-30 15:53 UTC.
Position N 37°06' E 001°10'.

Length 345 m; draft 9.5 m.

Type: Ship (hazmat cat A). MMSI: 538003300.

Date/timePositionNaut miles runAvg speedWind from/ knotsBaromVisibWave heightAir tempDewpointWater temp
2015-Aug-30 15:16N 37°06' E 001°10'1418.6
2015-Aug-30 14:31N 37°02' E 000°53'3918.6
2015-Aug-30 12:26N 36°52' E 000°06'33818.5
2015-Aug-29 18:11N 35°54' W 006°47'1117.9
2015-Aug-29 17:33N 35°54' W 007°01'3817.9
2015-Aug-29 15:26N 36°06' W 007°45'4414.9
2015-Aug-29 12:30N 36°19' W 008°37'5518.5
2015-Aug-29 09:32N 36°45' W 009°37'1919.6
2015-Aug-29 08:33N 37°03' W 009°45'2019.9
2015-Aug-29 07:33N 37°22' W 009°51'1919.2
2015-Aug-29 06:33N 37°41' W 009°56'1918.9
2015-Aug-29 05:34N 37°59' W 010°01'1919.4
2015-Aug-29 04:33N 38°19' W 010°06'2019.7
2015-Aug-29 03:33N 38°38' W 010°11'2019.6
2015-Aug-29 02:33N 38°57' W 010°13'2019.6
2015-Aug-29 01:33N 39°17' W 010°13'2019.6
2015-Aug-29 00:33N 39°37' W 010°13'  
2015-Aug-23 12:04N 39°38' W 009°56'1015.2
2015-Aug-23 11:25N 39°28' W 009°57'1315.0
2015-Aug-23 10:33N 39°15' W 009°57'1515.1
2015-Aug-23 09:33N 38°60' W 009°57'1514.8
2015-Aug-23 08:33N 38°45' W 009°57'1514.9
2015-Aug-23 07:33N 38°30' W 009°53'1515.2
2015-Aug-23 06:33N 38°15' W 009°49'1615.7
2015-Aug-23 05:33N 38°00' W 009°44'1615.7
2015-Aug-23 04:33N 37°45' W 009°40'4515.2
2015-Aug-23 01:33N 37°01' W 009°26'1714.3
2015-Aug-23 00:22N 36°45' W 009°18'3114.1
2015-Aug-22 22:11N 36°36' W 008°41'1115.2
2015-Aug-22 21:26N 36°35' W 008°27'1414.9
2015-Aug-22 20:29N 36°33' W 008°09'27114.3
2015-Aug-22 01:32N 36°22' W 002°32'1615.7
2015-Aug-22 00:33N 36°24' W 002°13'2015.7
2015-Aug-21 23:17N 36°29' W 001°49'1915.7
2015-Aug-21 22:03N 36°36' W 001°27'815.4
2015-Aug-21 21:33N 36°39' W 001°18'1615.8
2015-Aug-21 20:33N 36°44' W 000°59'1515.4
2015-Aug-21 19:34N 36°52' W 000°43'7 6.8
2015-Aug-21 18:32N 36°56' W 000°36'1 1.2
2015-Aug-21 17:33N 36°55' W 000°35'1 1.3
2015-Aug-21 16:33N 36°54' W 000°33'1 1.5
2015-Aug-21 15:33N 36°53' W 000°32'1 1.5
2015-Aug-21 14:33N 36°52' W 000°30'1 1.5
2015-Aug-21 13:33N 36°52' W 000°29'1 1.4
2015-Aug-21 12:33N 36°52' W 000°27'1 1.3
2015-Aug-21 11:33N 36°52' W 000°25'1 1.1
2015-Aug-21 10:33N 36°52' W 000°24'1 1.1
2015-Aug-21 09:33N 36°52' W 000°23'1 1.1
2015-Aug-21 08:33N 36°53' W 000°22'1 0.8
2015-Aug-21 07:32N 36°54' W 000°21'2 1.2
2015-Aug-21 06:13N 36°53' W 000°19'911.2
2015-Aug-21 05:27N 36°55' W 000°08'1415.4
2015-Aug-21 04:34N 36°57' E 000°09'1715.4
2015-Aug-21 03:28N 36°59' E 000°29'1415.0
2015-Aug-21 02:33N 37°01' E 000°46'3015.1
2015-Aug-21 00:34N 37°10' E 001°23'5315.5
2015-Aug-20 21:07N 37°21' E 002°28'915.8
2015-Aug-20 20:33N 37°22' E 002°39'1615.7
2015-Aug-20 19:33N 37°23' E 002°59'2115.8
2015-Aug-20 18:11N 37°26' E 003°26'1015.8
2015-Aug-20 17:33N 37°27' E 003°39'1616.3
2015-Aug-20 16:32N 37°29' E 003°59'  
Track history (hours):
 
Tides and Currents Weather Stations Pressure Air Temp Water Temp Dewpoint Dewpoint Depression Visibility Wind Speed Wind Dir Waves Ship Positions

Umm Slal

Last reported at 2015-Aug-30 15:16 UTC. Time now 2015-Aug-30 15:53 UTC.
Position N 37°06' E 001°10'.

Length 345 m; draft 9.5 m.

Type: Ship (hazmat cat A). MMSI: 538003300.

Date/timePositionNaut miles runAvg speedWind from/ knotsBaromVisibWave heightAir tempDewpointWater temp
2015-Aug-30 15:16N 37°06' E 001°10'1418.6
2015-Aug-30 14:31N 37°02' E 000°53'3918.6
2015-Aug-30 12:26N 36°52' E 000°06'33818.5
2015-Aug-29 18:11N 35°54' W 006°47'1117.9
2015-Aug-29 17:33N 35°54' W 007°01'3817.9
2015-Aug-29 15:26N 36°06' W 007°45'4414.9
2015-Aug-29 12:30N 36°19' W 008°37'5518.5
2015-Aug-29 09:32N 36°45' W 009°37'1919.6
2015-Aug-29 08:33N 37°03' W 009°45'2019.9
2015-Aug-29 07:33N 37°22' W 009°51'1919.2
2015-Aug-29 06:33N 37°41' W 009°56'1918.9
2015-Aug-29 05:34N 37°59' W 010°01'1919.4
2015-Aug-29 04:33N 38°19' W 010°06'2019.7
2015-Aug-29 03:33N 38°38' W 010°11'2019.6
2015-Aug-29 02:33N 38°57' W 010°13'2019.6
2015-Aug-29 01:33N 39°17' W 010°13'2019.6
2015-Aug-29 00:33N 39°37' W 010°13'  
2015-Aug-23 12:04N 39°38' W 009°56'1015.2
2015-Aug-23 11:25N 39°28' W 009°57'1315.0
2015-Aug-23 10:33N 39°15' W 009°57'1515.1
2015-Aug-23 09:33N 38°60' W 009°57'1514.8
2015-Aug-23 08:33N 38°45' W 009°57'1514.9
2015-Aug-23 07:33N 38°30' W 009°53'1515.2
2015-Aug-23 06:33N 38°15' W 009°49'1615.7
2015-Aug-23 05:33N 38°00' W 009°44'1615.7
2015-Aug-23 04:33N 37°45' W 009°40'4515.2
2015-Aug-23 01:33N 37°01' W 009°26'1714.3
2015-Aug-23 00:22N 36°45' W 009°18'3114.1
2015-Aug-22 22:11N 36°36' W 008°41'1115.2
2015-Aug-22 21:26N 36°35' W 008°27'1414.9
2015-Aug-22 20:29N 36°33' W 008°09'27114.3
2015-Aug-22 01:32N 36°22' W 002°32'1615.7
2015-Aug-22 00:33N 36°24' W 002°13'2015.7
2015-Aug-21 23:17N 36°29' W 001°49'1915.7
2015-Aug-21 22:03N 36°36' W 001°27'815.4
2015-Aug-21 21:33N 36°39' W 001°18'1615.8
2015-Aug-21 20:33N 36°44' W 000°59'1515.4
2015-Aug-21 19:34N 36°52' W 000°43'7 6.8
2015-Aug-21 18:32N 36°56' W 000°36'1 1.2
2015-Aug-21 17:33N 36°55' W 000°35'1 1.3
2015-Aug-21 16:33N 36°54' W 000°33'1 1.5
2015-Aug-21 15:33N 36°53' W 000°32'1 1.5
2015-Aug-21 14:33N 36°52' W 000°30'1 1.5
2015-Aug-21 13:33N 36°52' W 000°29'1 1.4
2015-Aug-21 12:33N 36°52' W 000°27'1 1.3
2015-Aug-21 11:33N 36°52' W 000°25'1 1.1
2015-Aug-21 10:33N 36°52' W 000°24'1 1.1
2015-Aug-21 09:33N 36°52' W 000°23'1 1.1
2015-Aug-21 08:33N 36°53' W 000°22'1 0.8
2015-Aug-21 07:32N 36°54' W 000°21'2 1.2
2015-Aug-21 06:13N 36°53' W 000°19'911.2
2015-Aug-21 05:27N 36°55' W 000°08'1415.4
2015-Aug-21 04:34N 36°57' E 000°09'1715.4
2015-Aug-21 03:28N 36°59' E 000°29'1415.0
2015-Aug-21 02:33N 37°01' E 000°46'3015.1
2015-Aug-21 00:34N 37°10' E 001°23'5315.5
2015-Aug-20 21:07N 37°21' E 002°28'915.8
2015-Aug-20 20:33N 37°22' E 002°39'1615.7
2015-Aug-20 19:33N 37°23' E 002°59'2115.8
2015-Aug-20 18:11N 37°26' E 003°26'1015.8
2015-Aug-20 17:33N 37°27' E 003°39'1616.3
2015-Aug-20 16:32N 37°29' E 003°59'  

Dump ship's entire track history